Terminal Aerodrome Forecast
Issued by NWS

Home | Current Version | Previous Version | Text Only | Print | Product List | Glossary On
Versions: 1 2 3 4 5 6 7 8 9 10 11 12
000
FTUS42 KMLB 252330
TAFTIX
TAF
KTIX 252330Z 2600/2624 10012KT P6SM SCT030 BKN250
     FM260400 11003KT P6SM SCT025
     FM261400 11010KT P6SM FEW025
     FM261700 10012G18KT P6SM SCT030 BKN050
      AMD NOT SKED 2602/2612=

USA.gov is the U.S. government's official web portal to all federal, state and local government web resources and services.